createdAt,value
2017-09-25T00:01:13.725Z,5.40
2017-09-25T00:03:41.184Z,5.50
2017-09-25T00:06:08.680Z,5.20
2017-09-25T00:08:36.172Z,5.10
2017-09-25T00:11:04.412Z,5.13
2017-09-25T00:13:31.907Z,4.93
2017-09-25T06:10:00.913Z,5.47
2017-09-25T06:12:28.383Z,5.70
2017-09-25T06:14:55.871Z,5.12
2017-09-25T06:17:23.370Z,5.75
2017-09-25T06:19:50.880Z,5.93
2017-09-25T06:22:18.347Z,6.20
2017-09-25T06:24:45.852Z,6.07
2017-09-25T06:27:13.348Z,5.18
2017-09-25T06:29:40.836Z,5.10
2017-09-25T06:32:08.295Z,5.55
2017-09-25T06:34:35.769Z,5.37
2017-09-25T06:37:04.030Z,6.00
2017-09-25T06:39:31.500Z,6.15
2017-09-25T06:41:59.775Z,6.15
2017-09-25T06:44:28.036Z,5.40
2017-09-25T06:46:55.547Z,5.07
2017-09-25T06:49:23.059Z,5.35
2017-09-25T06:51:51.336Z,5.18
2017-09-25T06:54:18.827Z,5.40
2017-09-25T06:56:46.332Z,5.47
2017-09-25T06:59:13.819Z,4.90
2017-09-25T07:01:42.107Z,5.87
2017-09-25T07:04:10.402Z,5.43
2017-09-25T07:06:37.909Z,5.37
2017-09-25T07:09:05.482Z,5.25
2017-09-25T07:11:32.987Z,5.10
2017-09-25T07:14:00.492Z,5.20
2017-09-25T07:16:28.008Z,4.78
2017-09-25T07:18:55.528Z,5.10
2017-09-25T07:21:23.816Z,6.05
2017-09-25T07:23:51.354Z,7.45
2017-09-25T07:26:18.847Z,6.53
2017-09-25T07:28:46.364Z,7.93
2017-09-25T07:31:13.837Z,7.30
2017-09-25T07:33:42.123Z,7.65
2017-09-25T07:36:10.401Z,8.02
2017-09-25T07:38:38.635Z,7.78
2017-09-25T07:41:06.115Z,7.50
2017-09-25T07:43:33.625Z,7.70
2017-09-25T07:46:01.145Z,8.55
2017-09-25T07:48:29.435Z,8.07
2017-09-25T07:50:57.722Z,8.47
2017-09-25T07:53:25.211Z,9.27
2017-09-25T07:55:52.709Z,9.57
2017-09-25T07:58:20.208Z,9.70
2017-09-25T08:00:47.695Z,11.47
2017-09-25T08:03:15.245Z,11.80
2017-09-25T08:05:42.742Z,10.85
2017-09-25T08:08:10.229Z,10.73
2017-09-25T08:10:37.750Z,10.70
2017-09-25T08:13:05.266Z,11.40
2017-09-25T08:15:32.780Z,11.50
2017-09-25T08:18:00.260Z,9.43
2017-09-25T08:20:28.535Z,11.43
2017-09-25T08:22:56.819Z,10.60
2017-09-25T08:25:25.088Z,12.73
2017-09-25T08:27:53.349Z,11.60
2017-09-25T08:30:20.860Z,11.53
2017-09-25T08:32:48.354Z,11.17
2017-09-25T08:35:15.837Z,9.93
2017-09-25T08:37:44.076Z,10.47
2017-09-25T08:40:11.601Z,10.07
2017-09-25T08:42:39.080Z,9.27
2017-09-25T08:45:06.612Z,10.93
2017-09-25T08:47:34.083Z,9.83
2017-09-25T08:50:02.211Z,9.43
2017-09-25T08:52:29.699Z,10.03
2017-09-25T08:54:57.210Z,9.53
2017-09-25T08:57:24.709Z,9.60
2017-09-25T08:59:52.958Z,9.17
2017-09-25T09:02:20.462Z,8.73
2017-09-25T09:04:47.961Z,9.60
2017-09-25T09:07:15.475Z,9.17
2017-09-25T09:09:42.972Z,8.97
2017-09-25T09:12:10.469Z,9.13
2017-09-25T09:14:38.711Z,7.80
2017-09-25T09:17:06.226Z,8.97
2017-09-25T09:19:33.727Z,9.07
2017-09-25T09:22:01.229Z,7.43
2017-09-25T09:24:29.510Z,8.00
2017-09-25T09:26:57.006Z,7.80
2017-09-25T09:29:24.505Z,6.20
2017-09-25T09:31:52.010Z,7.20
2017-09-25T09:34:19.519Z,6.53
2017-09-25T09:36:46.994Z,5.70
2017-09-25T09:39:15.282Z,5.67
2017-09-25T09:41:43.540Z,5.10
2017-09-25T09:44:11.015Z,6.20
2017-09-25T09:46:39.291Z,5.30
2017-09-25T09:49:07.536Z,5.63
2017-09-25T09:51:35.048Z,5.63
2017-09-25T09:54:02.544Z,6.10
2017-09-25T09:56:30.020Z,5.43
2017-09-25T09:58:57.550Z,4.50
2017-09-25T10:01:25.033Z,6.10
2017-09-25T10:03:52.569Z,5.13
2017-09-25T10:06:20.077Z,5.50
2017-09-25T10:08:48.358Z,4.97
2017-09-25T10:11:16.620Z,5.23
2017-09-25T10:13:44.128Z,5.60
2017-09-25T10:16:11.596Z,5.00
2017-09-25T10:18:39.107Z,5.93
2017-09-25T10:21:07.360Z,5.20
2017-09-25T10:23:34.883Z,5.40
2017-09-25T10:26:02.370Z,5.50
2017-09-25T10:28:29.825Z,5.50
2017-09-25T10:30:57.400Z,5.70
2017-09-25T10:33:24.855Z,6.20
2017-09-25T10:35:52.361Z,5.97
2017-09-25T10:38:19.838Z,5.10
2017-09-25T10:40:47.343Z,5.37
2017-09-25T10:43:14.855Z,5.77
2017-09-25T10:45:42.330Z,5.83
2017-09-25T10:48:09.817Z,5.60
2017-09-25T10:50:37.291Z,5.63
2017-09-25T10:53:05.519Z,5.23
2017-09-25T10:55:33.011Z,4.70
2017-09-25T10:58:01.256Z,5.20
2017-09-25T11:00:28.751Z,6.20
2017-09-25T11:02:57.019Z,5.50
2017-09-25T11:05:24.507Z,5.50
2017-09-25T11:07:51.991Z,5.20
2017-09-25T11:10:19.468Z,5.60
2017-09-25T11:12:46.967Z,6.70
2017-09-25T11:15:15.190Z,6.00
2017-09-25T11:17:42.690Z,5.47
2017-09-25T11:20:10.928Z,6.00
2017-09-25T11:22:38.420Z,6.57
2017-09-25T11:25:05.902Z,6.33
2017-09-25T11:27:34.159Z,6.13
2017-09-25T11:30:01.627Z,8.10
2017-09-25T11:32:29.907Z,8.37
2017-09-25T11:34:57.420Z,7.70
2017-09-25T11:37:24.904Z,7.60
2017-09-25T11:39:52.396Z,6.40
2017-09-25T11:42:19.896Z,7.37
2017-09-25T11:44:47.436Z,7.83
2017-09-25T11:47:14.922Z,8.53
2017-09-25T11:49:42.384Z,7.77
2017-09-25T11:52:09.911Z,8.50
2017-09-25T11:54:37.384Z,8.83
2017-09-25T11:57:04.872Z,7.90
2017-09-25T11:59:33.880Z,7.17
2017-09-25T12:02:01.390Z,9.10
2017-09-25T12:04:28.884Z,9.17
2017-09-25T12:06:56.388Z,8.70
2017-09-25T12:09:23.863Z,8.00
2017-09-25T12:11:51.327Z,9.17
2017-09-25T12:14:18.832Z,7.57
2017-09-25T12:16:46.313Z,7.77
2017-09-25T12:19:14.593Z,8.17
2017-09-25T12:21:42.080Z,7.80
2017-09-25T12:24:09.564Z,7.90
2017-09-25T12:26:37.067Z,9.20
2017-09-25T12:29:05.299Z,8.23
2017-09-25T12:31:32.795Z,9.40
2017-09-25T12:34:01.031Z,9.00
2017-09-25T12:36:28.491Z,8.67
2017-09-25T12:38:55.991Z,8.50
2017-09-25T12:41:24.261Z,8.90
2017-09-25T12:43:52.518Z,8.27
2017-09-25T12:46:19.983Z,8.27
2017-09-25T12:48:47.464Z,7.47
2017-09-25T12:51:14.938Z,8.10
2017-09-25T12:53:42.431Z,7.27
2017-09-25T12:56:09.919Z,7.77
2017-09-25T12:58:37.414Z,9.27
2017-09-25T13:01:04.888Z,7.70
2017-09-25T13:03:32.347Z,8.00
2017-09-25T13:05:59.852Z,7.27
2017-09-25T13:08:27.328Z,8.07
2017-09-25T13:10:55.599Z,8.07
2017-09-25T13:13:23.836Z,7.23
2017-09-25T13:15:51.324Z,7.53
2017-09-25T13:18:19.571Z,7.70
2017-09-25T13:20:47.095Z,7.63
2017-09-25T13:23:14.573Z,8.10
2017-09-25T13:25:42.052Z,8.13
2017-09-25T13:28:09.535Z,7.70
2017-09-25T13:30:37.771Z,6.87
2017-09-25T13:33:05.268Z,7.80
2017-09-25T13:35:33.513Z,7.77
2017-09-25T13:38:00.980Z,8.50
2017-09-25T13:40:28.497Z,7.80
2017-09-25T13:42:56.042Z,6.60
2017-09-25T13:45:23.659Z,6.93
2017-09-25T13:47:51.139Z,6.50
2017-09-25T13:50:19.409Z,8.70
2017-09-25T13:52:46.879Z,6.13
2017-09-25T13:55:15.161Z,6.80
2017-09-25T13:57:43.429Z,7.50
2017-09-25T14:02:44.592Z,7.27
2017-09-25T14:05:12.853Z,7.07
2017-09-25T14:07:40.371Z,7.00
2017-09-25T14:10:07.846Z,6.10
2017-09-25T14:12:35.337Z,7.30
2017-09-25T14:15:02.810Z,6.93
2017-09-25T14:17:31.197Z,6.17
2017-09-25T14:19:58.633Z,6.90
2017-09-25T14:22:26.143Z,6.40
2017-09-25T14:24:53.648Z,6.83
2017-09-25T14:27:21.155Z,8.07
2017-09-25T14:29:48.671Z,6.67
2017-09-25T14:32:16.124Z,7.20
2017-09-25T14:34:43.620Z,7.20
2017-09-25T14:37:11.092Z,6.30
2017-09-25T14:39:38.604Z,6.77
2017-09-25T14:42:06.059Z,6.93
2017-09-25T14:44:33.531Z,6.90
2017-09-25T14:47:01.784Z,7.00
2017-09-25T14:49:29.263Z,7.33
2017-09-25T14:51:57.540Z,7.87
2017-09-25T14:54:25.806Z,7.33
2017-09-25T14:56:53.305Z,7.10
2017-09-25T14:59:20.793Z,8.07
2017-09-25T15:01:48.260Z,8.00
2017-09-25T15:04:15.773Z,7.50
2017-09-25T15:06:43.271Z,7.87
2017-09-25T15:09:10.802Z,7.77
2017-09-25T15:11:38.284Z,7.33
2017-09-25T15:14:05.788Z,6.77
2017-09-25T15:16:34.054Z,8.67
2017-09-25T15:19:01.553Z,7.60
2017-09-25T15:21:29.041Z,7.80
2017-09-25T15:23:56.511Z,7.90
2017-09-25T15:26:24.034Z,8.73
2017-09-25T15:28:51.535Z,7.97
2017-09-25T15:31:19.081Z,9.10
2017-09-25T15:33:47.144Z,8.20
2017-09-25T15:36:14.948Z,7.60
2017-09-25T15:38:43.215Z,8.70
2017-09-25T15:41:10.713Z,8.50
2017-09-25T15:43:38.323Z,9.20
2017-09-25T15:46:05.819Z,7.60
2017-09-25T15:48:34.102Z,8.07
2017-09-25T15:51:02.328Z,6.17
2017-09-25T15:53:29.949Z,5.40
2017-09-25T15:55:57.463Z,6.00
2017-09-25T15:58:24.961Z,5.60
2017-09-25T16:00:54.992Z,5.87
2017-09-25T16:03:22.455Z,6.20
2017-09-25T16:05:50.001Z,6.23
2017-09-25T16:08:17.487Z,6.27
2017-09-25T16:10:45.046Z,6.13
2017-09-25T16:13:12.596Z,6.87
2017-09-25T16:15:40.068Z,8.17
2017-09-25T16:18:07.575Z,6.77
2017-09-25T16:20:35.856Z,7.57
2017-09-25T16:23:04.115Z,6.20
2017-09-25T16:25:31.611Z,6.37
2017-09-25T16:27:59.079Z,6.20
2017-09-25T16:30:26.560Z,6.20
2017-09-25T16:32:54.051Z,5.97
2017-09-25T16:35:21.571Z,7.00
2017-09-25T16:37:49.028Z,6.47
2017-09-25T16:40:16.529Z,7.40
2017-09-25T16:42:44.000Z,7.20
2017-09-25T16:45:12.255Z,5.80
2017-09-25T16:47:39.732Z,6.60
2017-09-25T16:50:08.005Z,6.30
2017-09-25T16:52:35.457Z,6.30
2017-09-25T16:55:02.948Z,6.60
2017-09-25T16:57:30.455Z,7.00
2017-09-25T16:59:57.943Z,6.50
2017-09-25T17:02:26.260Z,6.90
2017-09-25T17:04:53.718Z,7.57
2017-09-25T17:07:21.182Z,5.70
2017-09-25T17:09:48.697Z,7.30
2017-09-25T17:12:16.950Z,11.27
2017-09-25T17:14:44.452Z,7.70
2017-09-25T17:17:12.005Z,8.70
2017-09-25T17:19:39.932Z,8.53
2017-09-25T17:22:07.583Z,12.37
2017-09-25T17:24:35.424Z,9.33
2017-09-25T17:27:03.179Z,8.10
2017-09-25T17:29:30.948Z,10.30
2017-09-25T17:31:58.729Z,8.47
2017-09-25T17:34:26.524Z,8.03
2017-09-25T17:36:55.375Z,8.43
2017-09-25T17:39:23.250Z,7.73
2017-09-25T17:41:52.747Z,8.00
2017-09-25T17:44:20.288Z,7.33
2017-09-25T17:46:48.526Z,7.30
2017-09-25T17:49:16.031Z,6.83
2017-09-25T17:51:43.496Z,7.27
2017-09-25T17:54:10.982Z,7.10
2017-09-25T17:56:38.480Z,7.47
2017-09-25T17:59:06.762Z,7.03
2017-09-25T18:01:35.012Z,7.57
2017-09-25T18:04:02.565Z,8.03
2017-09-25T18:06:30.071Z,8.00
2017-09-25T18:08:57.560Z,7.60
2017-09-25T18:11:25.062Z,7.93
2017-09-25T18:13:52.561Z,9.13
2017-09-25T18:16:20.059Z,8.67
2017-09-25T18:18:47.544Z,7.63
2017-09-25T18:21:15.792Z,6.90
2017-09-25T18:23:43.282Z,7.03
2017-09-25T18:26:10.862Z,6.80
2017-09-25T18:28:39.244Z,7.20
2017-09-25T18:31:08.312Z,7.33
2017-09-25T18:33:36.646Z,7.20
2017-09-25T18:36:04.128Z,6.43
2017-09-25T18:38:31.656Z,6.53
2017-09-25T18:40:59.163Z,8.23
2017-09-25T18:43:26.642Z,8.00
2017-09-25T18:45:55.768Z,9.53
2017-09-25T18:48:23.325Z,9.93
2017-09-25T18:50:50.832Z,11.57
2017-09-25T18:53:18.331Z,11.93
2017-09-25T18:55:45.839Z,13.10
2017-09-25T18:58:13.346Z,12.13
2017-09-25T19:00:41.054Z,11.00
2017-09-25T19:03:08.540Z,9.23
2017-09-25T19:05:36.787Z,7.73
2017-09-25T19:08:04.365Z,7.10
2017-09-25T19:10:32.802Z,8.40
2017-09-25T19:13:00.284Z,9.37
2017-09-25T19:15:27.783Z,7.90
2017-09-25T19:17:56.049Z,8.77
2017-09-25T19:20:23.662Z,7.40
2017-09-25T19:22:51.152Z,8.50
2017-09-25T19:25:18.660Z,8.60
2017-09-25T19:27:46.174Z,8.70
2017-09-25T19:30:13.711Z,8.20
2017-09-25T19:32:41.187Z,7.70
2017-09-25T19:35:08.684Z,8.07
2017-09-25T19:37:36.231Z,8.37
2017-09-25T19:40:03.727Z,8.33
2017-09-25T19:42:31.242Z,8.33
2017-09-25T19:44:58.771Z,7.20
2017-09-25T19:47:26.293Z,8.90
2017-09-25T19:49:55.287Z,8.60
2017-09-25T19:52:22.817Z,7.47
2017-09-25T19:54:56.398Z,8.00
2017-09-25T20:00:29.477Z,7.70
2017-09-25T20:02:56.974Z,7.87
2017-09-25T20:05:25.289Z,8.37
2017-09-25T20:07:53.556Z,8.70
2017-09-25T20:10:26.408Z,8.27
2017-09-25T20:12:53.882Z,9.00
2017-09-25T20:15:27.962Z,8.47
2017-09-25T20:17:55.460Z,9.60
2017-09-25T20:20:22.959Z,8.60
2017-09-25T20:22:50.456Z,8.30
2017-09-25T20:25:17.943Z,8.87
2017-09-25T20:27:45.495Z,9.37
2017-09-25T20:30:13.744Z,9.20
2017-09-25T20:32:41.237Z,8.50
2017-09-25T20:35:09.483Z,9.20
2017-09-25T20:37:37.040Z,8.97
2017-09-25T20:40:04.532Z,10.40
2017-09-25T20:42:38.429Z,10.17
2017-09-25T20:45:05.898Z,9.50
2017-09-25T20:47:34.139Z,9.30
2017-09-25T20:50:02.412Z,9.80
2017-09-25T20:52:29.902Z,9.40
2017-09-25T20:54:58.176Z,9.43
2017-09-25T20:57:25.660Z,10.27
2017-09-25T20:59:53.955Z,8.60
2017-09-25T21:02:21.475Z,8.60
2017-09-25T21:04:49.756Z,8.80
2017-09-25T21:07:17.259Z,9.73
2017-09-25T21:09:44.755Z,10.53
2017-09-25T21:12:12.290Z,9.63
2017-09-25T21:14:39.780Z,10.97
2017-09-25T21:17:07.287Z,9.80
2017-09-25T21:19:34.778Z,11.37
2017-09-25T21:22:02.291Z,10.03
2017-09-25T21:24:29.789Z,9.57
2017-09-25T21:27:16.160Z,9.33
2017-09-25T21:29:43.648Z,9.70
2017-09-25T21:32:11.149Z,9.63
2017-09-25T21:34:39.395Z,9.63
2017-09-25T21:37:06.892Z,9.40
2017-09-25T21:39:35.151Z,9.63
2017-09-25T21:42:02.631Z,9.83
2017-09-25T21:44:30.139Z,11.47
2017-09-25T21:46:57.651Z,10.50
2017-09-25T21:49:25.874Z,9.13
2017-09-25T21:51:53.391Z,9.40
2017-09-25T21:54:20.886Z,10.30
2017-09-25T21:56:48.396Z,8.90
2017-09-25T21:59:16.650Z,11.07
2017-09-25T22:01:44.181Z,10.27
2017-09-25T22:04:11.689Z,10.53
2017-09-25T22:06:39.987Z,10.47
2017-09-25T22:09:07.511Z,9.80
2017-09-25T22:11:35.751Z,9.40
2017-09-25T22:14:03.228Z,9.13
2017-09-25T22:16:30.731Z,8.90
2017-09-25T22:18:58.963Z,9.00
2017-09-25T22:21:26.472Z,8.90
2017-09-25T22:23:53.943Z,9.20
2017-09-25T22:26:21.468Z,9.70
2017-09-25T22:28:49.689Z,9.90
2017-09-25T22:31:17.211Z,10.10
2017-09-25T22:33:45.470Z,9.33
2017-09-25T22:36:12.999Z,10.27
2017-09-25T22:38:40.476Z,9.40
2017-09-25T22:41:07.995Z,9.77
2017-09-25T22:46:40.309Z,10.00
2017-09-25T22:49:07.795Z,9.00
2017-09-25T22:51:35.311Z,9.63
2017-09-25T22:54:02.814Z,9.10
2017-09-25T22:56:30.284Z,8.90
2017-09-25T22:58:58.544Z,8.70
2017-09-25T23:01:26.023Z,8.50
2017-09-25T23:03:56.940Z,9.03
2017-09-25T23:06:24.423Z,9.50
2017-09-25T23:08:52.643Z,9.00
2017-09-25T23:11:20.161Z,10.03
2017-09-25T23:13:48.396Z,8.93
2017-09-25T23:16:15.913Z,8.00
2017-09-25T23:18:43.420Z,9.20
2017-09-25T23:21:10.931Z,9.10
2017-09-25T23:23:38.403Z,8.57
2017-09-25T23:26:05.895Z,8.83
2017-09-25T23:28:33.380Z,8.17
2017-09-25T23:31:01.611Z,9.83
2017-09-25T23:33:29.110Z,9.37
2017-09-25T23:35:56.621Z,10.10
2017-09-25T23:38:24.131Z,8.43
2017-09-25T23:40:51.598Z,8.70
2017-09-25T23:43:19.854Z,8.70
2017-09-25T23:45:47.356Z,9.77
2017-09-25T23:48:14.831Z,9.60
2017-09-25T23:50:42.319Z,9.20
2017-09-25T23:53:09.811Z,9.50
2017-09-25T23:55:38.068Z,9.27
2017-09-25T23:58:05.543Z,10.57
